Latest Weather Observations for Avalon

IDV60901

Issued at 6:11 am EDT Sunday 1 February 2015 (issued every 10 minutes, with the page automatically refreshed every 10 minutes)

About weather observations | Map of Melbourne area stations | Latest observations for Melbourne area | Other Formats
Station Details ID: 087113 Name: AVALON AIRPORT Lat: -38.03 Lon: 144.48 Height: 10.6 m
Data from the previous 72 hours. | See also: Recent months at Avalon
Date/Time
EDT
Tmp

°C
App
Tmp
°C
Dew
Point
°C
Rel
Hum
%
Delta-T

°C
Wind Press
QNH
hPa
Press
MSL
hPa
Rain
since
9 am
mm
Dir
 
Spd
km/h
Gust
km/h
Spd
kts
Gust
kts
01/06:09am 12.7 10.4 11.6 93 0.6 W 15 24 8 13 1012.7 1012.7 1.2
01/06:07am 12.6 10.2 11.5 93 0.6 W 15 24 8 13 1012.7 1012.7 1.2
01/05:31am 13.0 9.8 11.4 90 0.8 W 19 22 10 12 1012.6 1012.6 0.6
01/05:30am 13.0 10.2 11.4 90 0.8 W 17 22 9 12 1012.6 1012.6 0.6
01/05:00am 13.1 9.8 11.5 90 0.8 WSW 20 28 11 15 1012.6 1012.6 0.6
01/04:30am 13.6 9.8 11.3 86 1.2 WSW 22 28 12 15 1012.6 1012.6 0.6
01/04:00am 13.4 10.1 11.5 88 1.0 W 20 26 11 14 1012.6 1012.6 0.6
01/03:30am 13.6 11.3 11.8 89 1.0 W 15 22 8 12 1012.8 1012.8 0.6
01/03:00am 13.6 10.5 11.7 88 1.0 W 19 26 10 14 1012.9 1012.9 0.4
01/02:30am 14.0 10.9 11.5 85 1.3 W 19 26 10 14 1013.0 1013.0 0.4
01/02:00am 13.8 10.7 11.7 87 1.1 W 19 26 10 14 1013.1 1013.1 0.4
01/01:30am 13.9 11.3 12.1 89 1.0 W 17 20 9 11 1013.4 1013.4 0.4
01/01:00am 14.1 12.0 12.5 90 0.9 W 15 20 8 11 1013.4 1013.4 0.4
01/12:30am 14.2 11.7 12.4 89 1.0 W 17 22 9 12 1013.5 1013.5 0.4
 
Date/Time
EDT
Tmp

°C
App
Tmp
°C
Dew
Point
°C
Rel
Hum
%
Delta-T

°C
Wind Press
QNH
hPa
Press
MSL
hPa
Rain
since
9 am
mm
Dir
 
Spd
km/h
Gust
km/h
Spd
kts
Gust
kts
31/11:30pm 14.1 12.2 13.1 94 0.6 W 15 19 8 10 1013.9 1013.9 0.4
31/11:00pm 14.1 11.9 13.3 95 0.4 W 17 20 9 11 1014.1 1014.1 0.4
31/10:57pm 14.1 12.3 13.3 95 0.4 W 15 20 8 11 1014.1 1014.1 0.4
31/10:30pm 14.1 11.9 13.3 95 0.4 W 17 20 9 11 1014.2 1014.2 0.4
31/10:13pm 14.2 12.0 13.4 95 0.4 W 17 22 9 12 1014.1 1014.1 0.2
31/10:00pm 14.1 11.2 13.0 93 0.6 WSW 20 26 11 14 1014.1 1014.1 0.2
31/09:30pm 14.4 11.1 12.8 90 0.9 WSW 22 28 12 15 1013.9 1013.9 0.0
31/09:28pm 14.4 11.1 12.8 90 0.9 WSW 22 28 12 15 1013.9 1013.9 0.0
31/09:00pm 14.5 11.6 13.0 91 0.8 SW 20 28 11 15 1013.6 1013.6 0.0
31/08:30pm 15.0 12.0 12.7 86 1.3 WSW 20 28 11 15 1013.6 1013.6 0.0
31/08:00pm 15.6 11.0 12.4 81 1.8 SW 28 35 15 19 1013.4 1013.4 0.0
31/07:30pm 16.3 10.9 12.1 76 2.3 SW 32 39 17 21 1013.0 1013.0 0.0
31/07:00pm 17.0 11.0 12.1 73 2.7 SW 35 44 19 24 1012.8 1012.8 0.0
31/06:30pm 17.9 12.7 11.7 67 3.4 SW 30 41 16 22 1012.5 1012.5 0.0
31/05:30pm 19.1 11.7 11.2 60 4.3 SSW 41 54 22 29 1012.3 1012.3 0.0
31/05:00pm 20.1 12.8 11.6 58 4.7 SSW 41 50 22 27 1012.2 1012.2 0.0
31/04:30pm 20.3 12.6 11.5 57 4.9 SSW 43 50 23 27 1012.1 1012.1 0.0
31/04:00pm 20.9 14.0 10.4 51 5.7 SSW 37 46 20 25 1012.1 1012.1 0.0
31/03:30pm 21.6 14.5 11.0 51 5.8 SSW 39 48 21 26 1012.2 1012.2 0.0
31/03:00pm 21.7 15.5 9.9 47 6.4 SSW 33 44 18 24 1012.3 1012.3 0.0
31/02:30pm 21.7 15.6 9.9 47 6.4 SSW 32 41 17 22 1012.3 1012.3 0.0
31/02:00pm 21.1 15.8 10.0 49 6.0 SSW 28 39 15 21 1012.3 1012.3 0.0
31/01:30pm 20.5 15.2 9.7 50 5.8 S 28 41 15 22 1012.4 1012.4 0.0
31/01:00pm 20.4 15.0 10.8 54 5.2 S 30 39 16 21 1012.5 1012.5 0.0
31/12:30pm 19.9 14.8 9.2 50 5.7 SW 26 35 14 19 1012.7 1012.7 0.0
31/12:00pm 19.6 14.0 10.3 55 5.0 SSW 30 39 16 21 1012.8 1012.8 0.0
31/11:30am 18.5 12.2 11.1 62 4.0 SSW 35 43 19 23 1012.7 1012.7 0.0
31/11:00am 18.4 12.7 11.2 63 3.9 SSW 32 39 17 21 1012.7 1012.7 0.0
31/10:30am 18.0 12.3 11.3 65 3.6 SSW 32 37 17 20 1012.7 1012.7 0.0
31/10:00am 18.0 12.2 11.6 66 3.5 SSW 33 41 18 22 1012.5 1012.5 0.0
31/09:30am 18.1 12.4 11.7 66 3.5 SSW 33 41 18 22 1012.4 1012.4 0.0
31/09:00am 17.8 14.1 11.6 67 3.4 SW 22 30 12 16 1012.2 1012.2 0.0
31/08:30am 15.4 12.0 11.2 76 2.2 WSW 20 26 11 14 1012.3 1012.3 0.0
31/08:00am 14.1 11.6 11.1 82 1.6 W 15 20 8 11 1012.3 1012.3 0.0
31/07:30am 13.4 10.0 10.6 83 1.5 W 19 26 10 14 1012.2 1012.2 0.0
31/07:00am 12.2 8.4 9.9 86 1.2 W 20 22 11 12 1012.1 1012.1 0.0
31/06:30am 12.3 8.6 10.0 86 1.2 W 20 26 11 14 1012.0 1012.0 0.0
31/06:00am 11.9 8.7 10.0 88 1.0 W 17 20 9 11 1011.6 1011.6 0.0
31/05:30am 11.6 8.3 9.7 88 1.0 W 17 20 9 11 1011.5 1011.5 0.0
31/05:00am 11.7 8.1 9.8 88 1.0 WNW 19 20 10 11 1011.5 1011.5 0.0
31/04:30am 11.1 8.7 8.8 86 1.1 WNW 11 13 6 7 1011.6 1011.6 0.0
31/04:00am 11.3 9.3 8.7 84 1.3 WNW 9 11 5 6 1011.8 1011.8 0.0
31/03:30am 11.9 8.4 8.9 82 1.5 WNW 17 19 9 10 1012.1 1012.1 0.0
31/03:00am 12.1 9.4 9.1 82 1.5 WNW 13 15 7 8 1012.1 1012.1 0.0
31/02:30am 12.3 9.3 9.1 81 1.6 WNW 15 19 8 10 1012.4 1012.4 0.0
31/02:00am 12.1 9.4 8.9 81 1.6 WNW 13 17 7 9 1012.7 1012.7 0.0
31/01:30am 12.1 9.7 8.8 80 1.6 WNW 11 13 6 7 1012.9 1012.9 0.0
31/01:00am 12.3 9.6 9.0 80 1.7 WNW 13 17 7 9 1013.0 1013.0 0.0
31/12:30am 12.5 9.8 9.1 80 1.7 NW 13 15 7 8 1013.1 1013.1 0.0
31/12:00am 12.7 9.7 9.2 79 1.8 WNW 15 17 8 9 1013.1 1013.1 0.0
 
Date/Time
EDT
Tmp

°C
App
Tmp
°C
Dew
Point
°C
Rel
Hum
%
Delta-T

°C
Wind Press
QNH
hPa
Press
MSL
hPa
Rain
since
9 am
mm
Dir
 
Spd
km/h
Gust
km/h
Spd
kts
Gust
kts
30/11:30pm 14.4 12.0 10.0 75 2.3 SW 13 15 7 8 1013.5 1013.5 0.0
30/11:00pm 14.4 12.0 10.0 75 2.3 SW 13 17 7 9 1013.8 1013.8 0.0
30/10:30pm 14.5 12.2 10.3 76 2.2 SSW 13 19 7 10 1014.0 1014.0 0.0
30/10:00pm 14.2 12.0 9.2 72 2.5 SSW 11 15 6 8 1014.0 1014.0 0.0
30/09:30pm 15.1 12.2 9.7 70 2.8 S 15 20 8 11 1014.0 1014.0 0.0
30/09:00pm 15.3 11.9 9.2 67 3.1 S 17 20 9 11 1014.0 1014.0 0.0
30/08:30pm 16.1 12.1 9.1 63 3.6 SSE 20 28 11 15 1013.8 1013.8 0.0
30/08:00pm 17.0 12.7 9.2 60 4.0 SSE 22 30 12 16 1013.9 1013.9 0.0
30/07:30pm 17.7 12.9 8.8 56 4.6 S 24 30 13 16 1013.9 1013.9 0.0
30/07:00pm 18.7 13.9 8.7 52 5.2 S 24 32 13 17 1013.8 1013.8 0.0
30/06:30pm 19.0 13.4 8.9 52 5.3 SSE 28 33 15 18 1013.8 1013.8 0.0
30/06:00pm 19.6 14.3 8.3 48 5.9 SSE 26 35 14 19 1013.9 1013.9 0.0
30/05:30pm 19.4 13.6 7.8 47 5.9 SSE 28 39 15 21 1014.0 1014.0 0.0
30/05:00pm 20.7 15.2 9.0 47 6.2 SSE 28 35 15 19 1014.2 1014.2 0.0
30/04:30pm 20.1 14.3 8.1 46 6.2 S 28 35 15 19 1014.4 1014.4 0.0
30/04:00pm 21.0 16.1 8.6 45 6.5 S 24 35 13 19 1014.6 1014.6 0.0
30/03:30pm 19.8 14.6 7.2 44 6.4 S 24 35 13 19 1015.0 1015.0 0.0
30/03:07pm 21.0 15.4 8.6 45 6.5 S 28 46 15 25 1015.2 1015.2 0.0
30/03:00pm 20.5 14.8 8.2 45 6.4 S 28 37 15 20 1015.3 1015.3 0.0
30/02:30pm 21.3 15.7 8.6 44 6.7 S 28 39 15 21 1015.6 1015.6 0.0
30/02:00pm 21.0 14.9 8.3 44 6.6 S 30 43 16 23 1015.8 1015.8 0.0
30/01:30pm 21.4 15.9 9.0 45 6.6 S 28 37 15 20 1015.8 1015.8 0.0
30/01:00pm 20.3 14.8 7.7 44 6.5 S 26 39 14 21 1016.1 1016.1 0.0
30/12:30pm 19.5 15.1 7.6 46 6.1 S 20 35 11 19 1016.4 1016.4 0.0
30/12:00pm 20.4 15.9 8.7 47 6.1 SSE 22 33 12 18 1016.6 1016.6 0.0
30/11:30am 20.0 16.0 9.0 49 5.8 SSE 20 30 11 16 1016.8 1016.8 0.0
30/11:00am 18.7 15.0 9.5 55 4.8 SE 19 28 10 15 1016.8 1016.8 0.0
30/10:30am 18.9 15.3 9.9 56 4.8 SE 19 24 10 13 1017.0 1017.0 0.0
30/10:00am 17.6 14.6 10.7 64 3.7 SE 17 24 9 13 1017.2 1017.2 0.0
30/09:30am 17.7 14.9 11.3 66 3.5 ESE 17 24 9 13 1017.4 1017.4 0.0
30/09:00am 17.2 14.9 11.7 70 3.0 ESE 15 22 8 12 1017.2 1017.2 0.0
30/08:30am 14.5 14.5 12.5 88 1.1 NW 4 6 2 3 1017.1 1017.1 0.0
30/08:00am 13.2 12.5 12.1 93 0.6 NNW 7 7 4 4 1016.9 1016.9 0.0
30/07:30am 12.3 11.0 11.4 94 0.5 NNW 9 11 5 6 1016.7 1016.7 0.0
30/07:00am 11.7 10.3 10.8 94 0.5 NW 9 11 5 6 1016.4 1016.4 0.0
30/06:30am 10.3 9.7 8.9 91 0.7 W 2 7 1 4 1016.2 1016.2 0.0
30/06:00am 11.6 11.3 10.2 91 0.7 S 2 6 1 3 1016.3 1016.3 0.0
30/05:30am 12.2 11.0 10.3 88 1.0 E 7 7 4 4 1016.2 1016.2 0.0
30/05:00am 13.4 11.3 11.3 87 1.1 ESE 13 15 7 8 1016.2 1016.2 0.0
30/04:30am 14.4 10.8 11.7 84 1.4 ESE 22 32 12 17 1016.4 1016.4 0.0
30/04:00am 15.2 11.8 11.4 78 2.0 S 20 24 11 13 1016.6 1016.6 0.0
30/03:30am 15.2 12.6 12.0 81 1.7 S 17 22 9 12 1016.8 1016.8 0.0
30/03:00am 15.6 13.1 11.0 74 2.4 SSE 15 19 8 10 1017.1 1017.1 0.0
30/02:30am 15.6 12.6 10.6 72 2.6 SE 17 20 9 11 1017.2 1017.2 0.0
30/02:00am 14.8 11.2 10.0 73 2.5 SE 19 20 10 11 1017.4 1017.4 0.0
30/01:30am 15.1 12.0 10.3 73 2.5 SE 17 22 9 12 1017.9 1017.9 0.0
30/01:00am 15.3 11.9 10.5 73 2.5 SE 19 24 10 13 1018.2 1018.2 0.0
30/12:30am 15.3 11.8 10.1 71 2.7 SE 19 22 10 12 1018.4 1018.4 0.0
30/12:00am 15.5 11.6 9.6 68 3.1 SE 20 26 11 14 1018.7 1018.7 0.0
 
Date/Time
EDT
Tmp

°C
App
Tmp
°C
Dew
Point
°C
Rel
Hum
%
Delta-T

°C
Wind Press
QNH
hPa
Press
MSL
hPa
Rain
since
9 am
mm
Dir
 
Spd
km/h
Gust
km/h
Spd
kts
Gust
kts
29/11:30pm 16.4 12.1 10.7 69 3.0 SE 24 30 13 16 1018.7 1018.7 0.0
29/11:00pm 16.0 12.6 10.7 71 2.8 SE 19 26 10 14 1018.9 1018.9 0.0
29/10:30pm 16.2 11.9 10.7 70 2.9 SE 24 32 13 17 1019.0 1019.0 0.0
29/10:00pm 16.5 12.6 10.8 69 3.0 SSE 22 26 12 14 1019.0 1019.0 0.0
29/09:30pm 16.5 12.6 10.8 69 3.0 SSE 22 30 12 16 1019.0 1019.0 0.0
29/09:00pm 16.2 12.6 10.5 69 3.0 SSE 20 28 11 15 1018.9 1018.9 0.0
29/08:30pm 16.5 11.6 10.1 66 3.4 SSE 26 37 14 20 1018.8 1018.8 0.0
29/08:00pm 16.8 11.2 10.2 65 3.5 SSE 30 39 16 21 1018.8 1018.8 0.0
29/07:30pm 17.5 11.4 9.9 61 4.0 SSE 32 41 17 22 1018.6 1018.6 0.0
29/07:00pm 18.2 12.0 9.5 57 4.6 SSE 32 43 17 23 1018.4 1018.4 0.0
29/06:30pm 18.7 12.0 9.8 56 4.7 SSE 35 44 19 24 1018.4 1018.4 0.0
29/06:00pm 19.6 12.9 9.8 53 5.2 SSE 35 46 19 25 1018.3 1018.3 0.0
29/05:30pm 19.6 13.0 10.0 54 5.1 SSE 35 46 19 25 1018.5 1018.5 0.0
29/05:00pm 20.4 14.3 9.9 51 5.6 SSE 32 43 17 23 1018.9 1018.9 0.0
29/04:30pm 20.1 13.6 8.8 48 5.9 SSE 33 44 18 24 1019.2 1019.2 0.0
29/04:00pm 20.3 13.1 9.2 49 5.9 SSE 37 48 20 26 1019.5 1019.5 0.0
29/03:30pm 20.8 13.7 9.7 49 6.0 SSE 37 50 20 27 1019.6 1019.6 0.0
29/03:00pm 20.4 13.5 9.0 48 6.0 S 35 46 19 25 1019.8 1019.8 0.0
29/02:30pm 19.9 13.0 8.9 49 5.8 S 35 54 19 29 1019.9 1019.9 0.0
29/02:29pm 20.4 13.5 9.0 48 6.0 S 35 54 19 29 1019.9 1019.9 0.0
29/02:00pm 19.6 13.3 8.9 50 5.6 SSE 32 41 17 22 1020.2 1020.2 0.0
29/01:30pm 19.6 13.6 8.6 49 5.7 SSE 30 39 16 21 1020.3 1020.3 0.0
29/01:00pm 21.4 15.2 9.3 46 6.4 SSE 32 41 17 22 1020.5 1020.5 0.0
29/12:30pm 19.2 12.8 8.5 50 5.6 SSE 32 39 17 21 1020.8 1020.8 0.0
29/12:00pm 20.2 14.7 9.2 49 5.8 SSE 28 39 15 21 1020.7 1020.7 0.0
29/11:30am 20.4 14.5 7.4 43 6.7 SE 28 39 15 21 1020.9 1020.9 0.0
29/11:00am 20.9 16.0 9.8 49 5.9 SE 26 37 14 20 1021.1 1021.1 0.0
29/10:30am 17.6 13.0 9.5 59 4.2 ESE 24 32 13 17 1021.2 1021.2 0.0
29/10:00am 18.1 13.2 10.0 59 4.3 ESE 26 33 14 18 1021.3 1021.3 0.0
29/09:30am 18.1 12.7 9.5 57 4.5 ESE 28 35 15 19 1021.2 1021.2 0.0
29/09:00am 17.9 12.1 9.5 58 4.4 ESE 30 39 16 21 1021.1 1021.1 0.0
29/08:30am 17.0 11.3 9.7 62 3.8 ESE 30 35 16 19 1020.9 1020.9 0.0
29/08:00am 16.0 11.5 10.1 68 3.1 ESE 24 33 13 18 1020.8 1020.8 0.0
29/07:30am 16.0 11.5 9.9 67 3.2 ESE 24 32 13 17 1020.6 1020.6 0.0
29/07:00am 14.7 11.1 9.9 73 2.5 SE 19 26 10 14 1020.3 1020.3 0.0
29/06:30am 14.2 9.9 9.4 73 2.5 ESE 22 26 12 14 1020.0 1020.0 0.0

Latest Capital City Observations: Canberra | Sydney | Melbourne | Brisbane | Adelaide | Perth | Hobart | Darwin

Other Formats:

Comma delimited format used in spreadsheet applications
http://www.bom.gov.au/fwo/IDV60901/IDV60901.94854.axf

JavaScript Object Notation format (JSON) in row-major order
http://www.bom.gov.au/fwo/IDV60901/IDV60901.94854.json